sensor_id;sensor_type;location;lat;lon;timestamp;P1;durP1;ratioP1;P2;durP2;ratioP2
42092;SDS011;28974;50.316;18.960;2023-03-01T00:00:21;231.50;;;78.50;;
42092;SDS011;28974;50.316;18.960;2023-03-01T00:12:21;258.35;;;82.20;;
42092;SDS011;28974;50.316;18.960;2023-03-01T00:24:22;244.35;;;76.28;;
42092;SDS011;28974;50.316;18.960;2023-03-01T00:36:23;242.45;;;76.03;;
42092;SDS011;28974;50.316;18.960;2023-03-01T00:48:23;239.25;;;72.55;;
42092;SDS011;28974;50.316;18.960;2023-03-01T01:00:24;239.00;;;74.50;;
42092;SDS011;28974;50.316;18.960;2023-03-01T01:12:28;206.65;;;69.88;;
42092;SDS011;28974;50.316;18.960;2023-03-01T01:24:28;267.15;;;84.05;;
42092;SDS011;28974;50.316;18.960;2023-03-01T01:36:29;253.05;;;85.78;;
42092;SDS011;28974;50.316;18.960;2023-03-01T01:48:36;235.07;;;77.68;;
42092;SDS011;28974;50.316;18.960;2023-03-01T02:00:41;222.88;;;73.07;;
42092;SDS011;28974;50.316;18.960;2023-03-01T02:12:41;232.70;;;74.13;;
42092;SDS011;28974;50.316;18.960;2023-03-01T02:36:56;173.80;;;62.28;;
42092;SDS011;28974;50.316;18.960;2023-03-01T02:48:57;188.82;;;60.97;;
42092;SDS011;28974;50.316;18.960;2023-03-01T03:00:58;191.07;;;60.90;;
42092;SDS011;28974;50.316;18.960;2023-03-01T03:13:03;173.38;;;57.03;;
42092;SDS011;28974;50.316;18.960;2023-03-01T03:25:04;173.50;;;56.95;;
42092;SDS011;28974;50.316;18.960;2023-03-01T03:37:05;165.65;;;54.88;;
42092;SDS011;28974;50.316;18.960;2023-03-01T03:49:25;155.02;;;50.42;;
42092;SDS011;28974;50.316;18.960;2023-03-01T04:01:25;173.90;;;55.80;;
42092;SDS011;28974;50.316;18.960;2023-03-01T04:13:26;165.45;;;53.90;;
42092;SDS011;28974;50.316;18.960;2023-03-01T04:25:26;181.15;;;61.72;;
42092;SDS011;28974;50.316;18.960;2023-03-01T04:37:27;183.40;;;56.25;;
42092;SDS011;28974;50.316;18.960;2023-03-01T04:49:27;163.43;;;57.90;;
42092;SDS011;28974;50.316;18.960;2023-03-01T05:01:28;176.60;;;62.72;;
42092;SDS011;28974;50.316;18.960;2023-03-01T05:13:28;151.75;;;51.95;;
42092;SDS011;28974;50.316;18.960;2023-03-01T05:25:29;171.80;;;57.33;;
42092;SDS011;28974;50.316;18.960;2023-03-01T05:37:33;150.02;;;54.28;;
42092;SDS011;28974;50.316;18.960;2023-03-01T05:49:33;189.32;;;65.50;;
42092;SDS011;28974;50.316;18.960;2023-03-01T06:01:34;201.30;;;67.93;;
42092;SDS011;28974;50.316;18.960;2023-03-01T06:13:35;185.07;;;65.32;;
42092;SDS011;28974;50.316;18.960;2023-03-01T06:25:36;268.47;;;89.43;;
42092;SDS011;28974;50.316;18.960;2023-03-01T06:37:37;243.52;;;83.65;;
42092;SDS011;28974;50.316;18.960;2023-03-01T06:49:37;248.85;;;84.40;;
42092;SDS011;28974;50.316;18.960;2023-03-01T07:01:37;251.45;;;84.18;;
42092;SDS011;28974;50.316;18.960;2023-03-01T07:13:39;243.05;;;85.00;;
42092;SDS011;28974;50.316;18.960;2023-03-01T07:25:39;277.17;;;95.30;;
42092;SDS011;28974;50.316;18.960;2023-03-01T07:37:40;204.82;;;77.32;;
42092;SDS011;28974;50.316;18.960;2023-03-01T07:49:40;165.85;;;67.25;;
42092;SDS011;28974;50.316;18.960;2023-03-01T08:01:40;142.02;;;59.60;;
42092;SDS011;28974;50.316;18.960;2023-03-01T08:13:42;141.73;;;60.42;;
42092;SDS011;28974;50.316;18.960;2023-03-01T08:25:42;176.05;;;73.65;;
42092;SDS011;28974;50.316;18.960;2023-03-01T08:37:43;167.68;;;68.53;;
42092;SDS011;28974;50.316;18.960;2023-03-01T08:49:43;54.70;;;25.52;;
42092;SDS011;28974;50.316;18.960;2023-03-01T09:01:43;57.72;;;24.83;;
42092;SDS011;28974;50.316;18.960;2023-03-01T09:13:44;78.53;;;33.40;;
42092;SDS011;28974;50.316;18.960;2023-03-01T09:25:45;81.22;;;32.58;;
42092;SDS011;28974;50.316;18.960;2023-03-01T09:37:47;78.43;;;33.90;;
42092;SDS011;28974;50.316;18.960;2023-03-01T10:02:21;97.85;;;38.70;;
42092;SDS011;28974;50.316;18.960;2023-03-01T10:14:34;83.78;;;34.03;;
42092;SDS011;28974;50.316;18.960;2023-03-01T10:26:40;97.70;;;37.28;;
42092;SDS011;28974;50.316;18.960;2023-03-01T10:38:50;94.72;;;33.92;;
42092;SDS011;28974;50.316;18.960;2023-03-01T11:15:00;52.70;;;21.65;;
42092;SDS011;28974;50.316;18.960;2023-03-01T11:27:03;57.20;;;22.95;;
42092;SDS011;28974;50.316;18.960;2023-03-01T11:39:18;42.97;;;20.55;;
42092;SDS011;28974;50.316;18.960;2023-03-01T11:51:23;48.83;;;19.87;;
42092;SDS011;28974;50.316;18.960;2023-03-01T12:39:42;48.53;;;20.70;;
42092;SDS011;28974;50.316;18.960;2023-03-01T12:51:50;49.67;;;21.23;;
42092;SDS011;28974;50.316;18.960;2023-03-01T13:16:19;39.47;;;17.65;;
42092;SDS011;28974;50.316;18.960;2023-03-01T14:04:34;48.25;;;17.70;;
42092;SDS011;28974;50.316;18.960;2023-03-01T14:17:13;37.17;;;16.52;;
42092;SDS011;28974;50.316;18.960;2023-03-01T14:29:05;41.87;;;16.67;;
42092;SDS011;28974;50.316;18.960;2023-03-01T14:41:15;42.67;;;16.83;;
42092;SDS011;28974;50.316;18.960;2023-03-01T14:53:19;35.85;;;16.90;;
42092;SDS011;28974;50.316;18.960;2023-03-01T15:05:28;46.03;;;20.42;;
42092;SDS011;28974;50.316;18.960;2023-03-01T15:29:34;55.60;;;19.85;;
42092;SDS011;28974;50.316;18.960;2023-03-01T15:41:47;43.10;;;18.85;;
42092;SDS011;28974;50.316;18.960;2023-03-01T15:53:49;68.65;;;24.70;;
42092;SDS011;28974;50.316;18.960;2023-03-01T16:05:50;52.47;;;20.00;;
42092;SDS011;28974;50.316;18.960;2023-03-01T16:17:51;39.20;;;16.30;;
42092;SDS011;28974;50.316;18.960;2023-03-01T16:29:57;43.70;;;15.77;;
42092;SDS011;28974;50.316;18.960;2023-03-01T16:41:59;82.85;;;27.20;;
42092;SDS011;28974;50.316;18.960;2023-03-01T16:54:00;67.72;;;24.83;;
42092;SDS011;28974;50.316;18.960;2023-03-01T17:06:01;104.30;;;35.58;;
42092;SDS011;28974;50.316;18.960;2023-03-01T17:18:02;108.45;;;38.67;;
42092;SDS011;28974;50.316;18.960;2023-03-01T17:30:03;119.90;;;42.57;;
42092;SDS011;28974;50.316;18.960;2023-03-01T17:42:04;100.78;;;36.58;;
42092;SDS011;28974;50.316;18.960;2023-03-01T17:54:05;158.43;;;50.80;;
42092;SDS011;28974;50.316;18.960;2023-03-01T18:06:16;158.07;;;52.15;;
42092;SDS011;28974;50.316;18.960;2023-03-01T18:18:17;198.77;;;66.18;;
42092;SDS011;28974;50.316;18.960;2023-03-01T18:30:17;226.85;;;80.85;;
42092;SDS011;28974;50.316;18.960;2023-03-01T18:42:18;254.18;;;85.18;;
42092;SDS011;28974;50.316;18.960;2023-03-01T18:54:21;270.05;;;88.03;;
42092;SDS011;28974;50.316;18.960;2023-03-01T19:06:22;277.67;;;90.10;;
42092;SDS011;28974;50.316;18.960;2023-03-01T19:18:23;293.05;;;96.18;;
42092;SDS011;28974;50.316;18.960;2023-03-01T19:30:23;289.63;;;93.72;;
42092;SDS011;28974;50.316;18.960;2023-03-01T19:42:24;332.95;;;102.68;;
42092;SDS011;28974;50.316;18.960;2023-03-01T19:54:26;292.50;;;96.75;;
42092;SDS011;28974;50.316;18.960;2023-03-01T20:06:27;278.83;;;88.28;;
42092;SDS011;28974;50.316;18.960;2023-03-01T20:18:28;331.77;;;109.47;;
42092;SDS011;28974;50.316;18.960;2023-03-01T20:30:29;439.92;;;143.25;;
42092;SDS011;28974;50.316;18.960;2023-03-01T20:42:30;458.60;;;143.68;;
42092;SDS011;28974;50.316;18.960;2023-03-01T20:54:30;452.08;;;153.82;;
42092;SDS011;28974;50.316;18.960;2023-03-01T21:06:31;410.70;;;131.68;;
42092;SDS011;28974;50.316;18.960;2023-03-01T21:18:32;405.55;;;130.48;;
42092;SDS011;28974;50.316;18.960;2023-03-01T21:30:33;385.98;;;115.03;;
42092;SDS011;28974;50.316;18.960;2023-03-01T21:42:34;325.67;;;102.43;;
42092;SDS011;28974;50.316;18.960;2023-03-01T21:54:35;323.52;;;100.45;;
42092;SDS011;28974;50.316;18.960;2023-03-01T22:06:36;328.42;;;97.88;;
42092;SDS011;28974;50.316;18.960;2023-03-01T22:18:39;297.73;;;93.82;;
42092;SDS011;28974;50.316;18.960;2023-03-01T22:30:40;337.77;;;108.03;;
42092;SDS011;28974;50.316;18.960;2023-03-01T22:42:40;341.75;;;101.55;;
42092;SDS011;28974;50.316;18.960;2023-03-01T22:54:40;368.88;;;110.72;;
42092;SDS011;28974;50.316;18.960;2023-03-01T23:06:41;355.30;;;109.47;;
42092;SDS011;28974;50.316;18.960;2023-03-01T23:18:53;312.25;;;101.25;;
42092;SDS011;28974;50.316;18.960;2023-03-01T23:30:58;291.67;;;87.78;;
42092;SDS011;28974;50.316;18.960;2023-03-01T23:42:59;308.98;;;92.55;;
42092;SDS011;28974;50.316;18.960;2023-03-01T23:55:00;278.45;;;85.97;;
